createdAt,value
2022-08-07T00:04:16.164Z,37.23
2022-08-07T00:32:53.214Z,36.91
2022-08-07T01:01:45.162Z,38.07
2022-08-07T01:29:55.297Z,38.57
2022-08-07T01:58:47.274Z,40.77
2022-08-07T02:27:15.749Z,42.84
2022-08-07T02:56:17.699Z,43.11
2022-08-07T03:24:32.104Z,45.65
2022-08-07T03:52:42.542Z,45.82
2022-08-07T04:21:24.071Z,44.41
2022-08-07T04:50:05.255Z,46.09
2022-08-07T05:18:44.496Z,39.19
2022-08-07T05:48:00.450Z,39.23
2022-08-07T06:16:03.388Z,43.61
2022-08-07T06:45:11.579Z,39.52
2022-08-07T07:13:58.843Z,38.57
2022-08-07T07:42:33.548Z,37.77
2022-08-07T08:10:56.370Z,36.35
2022-08-07T08:39:54.808Z,38.28
2022-08-07T09:08:08.696Z,37.56
2022-08-07T09:37:12.387Z,38.01
2022-08-07T10:06:25.164Z,37.83
2022-08-07T10:34:45.608Z,36.63
2022-08-07T11:03:01.444Z,36.01
2022-08-07T11:31:23.379Z,35.37
2022-08-07T12:00:08.608Z,32.57
2022-08-07T12:28:11.996Z,32.11
2022-08-07T12:56:27.792Z,31.16
2022-08-07T13:24:54.437Z,30.73
2022-08-07T13:53:05.665Z,29.48
2022-08-07T14:22:00.844Z,28.42
2022-08-07T14:49:59.892Z,27.61
2022-08-07T15:18:41.941Z,26.22
2022-08-07T15:46:53.278Z,25.54
2022-08-07T16:15:06.197Z,24.46
2022-08-07T16:44:02.964Z,24.69
2022-08-07T17:12:34.576Z,24.31
2022-08-07T17:40:30.134Z,24.14
2022-08-07T18:09:02.118Z,24.74
2022-08-07T18:37:10.054Z,24.88
2022-08-07T19:05:25.314Z,25.55
2022-08-07T19:33:42.172Z,26.82
2022-08-07T20:01:58.145Z,27.95
2022-08-07T20:30:11.967Z,27.3
2022-08-07T20:58:28.599Z,29.44
2022-08-07T21:26:36.835Z,30.17
2022-08-07T21:54:49.486Z,31.22
2022-08-07T22:23:06.091Z,30.79
2022-08-07T22:52:05.456Z,30.88
2022-08-07T23:21:05.929Z,31.81
2022-08-07T23:49:51.414Z,33.51
